Time;durP1;ratioP1;P1;durP2;ratioP2;P2;SDS_P1;SDS_P2;PMS_P1;PMS_P2;Temp;Humidity;BMP_temperature;BMP_pressure;BME280_temperature;BME280_humidity;BME280_pressure;Samples;Min_cycle;Max_cycle;Signal;HPM_P1;HPM_P2
2021/12/14 00:01:25;;;;;;;17.08;11.73;;;;;;;7.59;95.51;102627.22;5026384;28;20025;-70
2021/12/14 00:03:55;;;;;;;19.55;12.93;;;;;;;7.55;95.37;102625.84;5020520;28;20647;-68
2021/12/14 00:06:22;;;;;;;17.35;12.77;;;;;;;7.56;95.73;102622.13;5023775;28;20839;-68
2021/12/14 00:08:55;;;;;;;16.60;12.65;;;;;;;7.56;95.86;102627.59;5026404;28;20145;-68
2021/12/14 00:11:36;;;;;;;17.20;12.40;;;;;;;7.54;95.96;102619.53;5025163;28;20033;-68
2021/12/14 00:16:57;;;;;;;17.48;12.25;;;;;;;7.54;95.62;102622.25;5010222;28;20480;-70
2021/12/14 00:19:26;;;;;;;18.50;13.07;;;;;;;7.53;95.80;102625.19;5025010;28;20021;-70
2021/12/14 00:21:54;;;;;;;18.77;12.27;;;;;;;7.57;95.49;102632.03;5023925;28;20337;-70
2021/12/14 00:24:23;;;;;;;16.92;11.40;;;;;;;7.57;95.88;102628.44;5025496;28;20365;-70
2021/12/14 00:26:53;;;;;;;17.92;11.88;;;;;;;7.55;96.14;102625.84;5024970;28;20048;-70
2021/12/14 00:29:23;;;;;;;17.38;11.80;;;;;;;7.55;95.72;102628.59;5025378;28;20041;-70
2021/12/14 00:31:50;;;;;;;17.25;11.85;;;;;;;7.55;95.97;102631.31;5025118;28;20128;-70
2021/12/14 00:34:22;;;;;;;16.50;12.38;;;;;;;7.56;95.89;102638.53;5025226;28;20032;-70
2021/12/14 00:36:49;;;;;;;17.55;12.48;;;;;;;7.55;95.73;102628.59;5025089;28;20099;-70
2021/12/14 00:39:14;;;;;;;17.20;11.50;;;;;;;7.57;95.88;102639.38;5025312;28;20036;-70
2021/12/14 00:41:40;;;;;;;17.52;11.73;;;;;;;7.55;96.18;102639.53;5024007;28;20025;-70
2021/12/14 00:44:08;;;;;;;17.33;11.35;;;;;;;7.56;95.78;102649.47;5025168;28;20388;-70
2021/12/14 00:46:35;;;;;;;16.88;11.35;;;;;;;7.56;96.21;102654.06;5024605;28;20108;-70
2021/12/14 00:49:02;;;;;;;17.13;11.68;;;;;;;7.54;96.15;102648.75;5025302;28;20389;-70
2021/12/14 00:51:28;;;;;;;17.30;12.23;;;;;;;7.56;96.17;102662.28;5024217;28;20032;-70
2021/12/14 00:53:57;;;;;;;16.85;12.20;;;;;;;7.53;96.80;102667.03;5023834;28;20087;-70
2021/12/14 00:56:23;;;;;;;15.30;11.40;;;;;;;7.54;96.68;102670.63;5022436;28;20496;-70
2021/12/14 00:58:48;;;;;;;17.70;12.00;;;;;;;7.58;96.56;102668.44;5005715;28;20045;-70
2021/12/14 01:01:19;;;;;;;20.05;12.63;;;;;;;7.53;96.75;102672.50;5013558;28;20029;-70
2021/12/14 01:03:47;;;;;;;19.92;12.98;;;;;;;7.54;96.45;102668.75;5024414;28;20785;-70
2021/12/14 01:06:15;;;;;;;17.88;13.07;;;;;;;7.53;96.86;102667.03;5023696;28;20175;-70
2021/12/14 01:08:43;;;;;;;19.58;13.45;;;;;;;7.56;96.39;102652.19;5025447;28;20033;-70
2021/12/14 01:11:15;;;;;;;20.80;13.63;;;;;;;7.52;96.91;102653.53;5023960;28;20098;-70
2021/12/14 01:13:49;;;;;;;19.55;14.05;;;;;;;7.51;97.00;102646.38;5024124;28;20163;-69
2021/12/14 01:16:30;;;;;;;19.27;13.32;;;;;;;7.51;96.82;102655.44;5023696;28;20030;-70
2021/12/14 01:19:12;;;;;;;18.73;13.50;;;;;;;7.49;96.78;102651.13;5024160;28;20022;-70
2021/12/14 01:24:36;;;;;;;17.52;13.05;;;;;;;7.50;97.05;102664.66;5023984;28;20075;-70
2021/12/14 01:27:04;;;;;;;21.27;13.05;;;;;;;7.47;97.03;102647.72;5023790;28;20068;-70
2021/12/14 01:29:31;;;;;;;21.70;13.90;;;;;;;7.47;97.17;102639.53;5024886;28;20033;-69
2021/12/14 01:32:00;;;;;;;21.02;15.40;;;;;;;7.43;97.47;102632.66;5024401;28;20082;-70
2021/12/14 01:34:30;;;;;;;18.75;13.32;;;;;;;7.42;97.15;102629.06;5023784;28;20443;-70
2021/12/14 01:37:00;;;;;;;20.55;12.95;;;;;;;7.41;97.67;102630.09;5023673;28;20034;-70
2021/12/14 01:42:06;;;;;;;21.13;13.45;;;;;;;7.44;97.35;102631.63;5024339;28;20053;-70
2021/12/14 01:44:41;;;;;;;21.27;13.98;;;;;;;7.42;97.39;102636.44;5023248;28;20021;-70
2021/12/14 01:47:11;;;;;;;21.33;14.43;;;;;;;7.41;97.63;102630.09;5022895;28;20025;-70
2021/12/14 01:49:37;;;;;;;20.13;14.05;;;;;;;7.42;97.61;102626.34;5024145;28;20167;-70
2021/12/14 01:52:10;;;;;;;18.98;13.90;;;;;;;7.40;97.52;102622.94;5022992;28;20033;-70
2021/12/14 01:54:41;;;;;;;20.92;13.40;;;;;;;7.43;97.21;102624.47;5022400;28;20435;-70
2021/12/14 01:57:10;;;;;;;20.30;13.75;;;;;;;7.39;97.54;102614.88;5022064;28;20045;-70
2021/12/14 01:59:38;;;;;;;19.33;14.02;;;;;;;7.38;97.57;102616.75;5024479;28;20033;-70
2021/12/14 02:02:23;;;;;;;22.60;14.75;;;;;;;7.42;97.30;102609.09;5023592;28;20022;-70
2021/12/14 02:04:51;;;;;;;20.98;13.63;;;;;;;7.41;97.07;102601.91;5023018;28;20029;-70
2021/12/14 02:07:19;;;;;;;18.27;12.55;;;;;;;7.38;97.68;102594.03;5022353;28;20033;-70
2021/12/14 02:09:51;;;;;;;18.63;12.50;;;;;;;7.38;97.72;102599.50;5023814;28;20111;-70
2021/12/14 02:12:20;;;;;;;19.92;13.48;;;;;;;7.35;97.32;102599.81;5022861;28;20404;-70
2021/12/14 02:14:47;;;;;;;20.02;12.65;;;;;;;7.34;97.49;102590.78;5022455;28;20029;-70
2021/12/14 02:17:15;;;;;;;18.23;12.38;;;;;;;7.31;97.68;102603.94;5023644;28;20032;-70
2021/12/14 02:19:41;;;;;;;17.20;11.75;;;;;;;7.32;97.51;102605.66;5023815;28;20342;-70
2021/12/14 02:22:08;;;;;;;19.92;13.13;;;;;;;7.32;97.32;102616.56;5021765;28;20057;-70
2021/12/14 02:24:35;;;;;;;21.63;13.05;;;;;;;7.31;97.67;102604.78;5023605;28;20030;-70
2021/12/14 02:27:01;;;;;;;17.98;12.00;;;;;;;7.29;97.48;102610.41;5023645;28;20126;-70
2021/12/14 02:29:38;;;;;;;17.95;12.65;;;;;;;7.30;97.88;102614.03;5023498;28;20071;-70
2021/12/14 02:32:08;;;;;;;16.27;10.97;;;;;;;7.28;97.21;102608.69;5003890;28;20080;-70
2021/12/14 02:34:54;;;;;;;17.17;11.73;;;;;;;7.29;97.44;102613.13;5020653;28;20041;-70
2021/12/14 02:37:33;;;;;;;17.02;11.57;;;;;;;7.26;96.97;102616.22;5022585;28;20113;-70
2021/12/14 02:40:17;;;;;;;17.30;10.93;;;;;;;7.29;97.08;102621.34;5023510;28;20037;-70
2021/12/14 02:42:42;;;;;;;17.20;10.35;;;;;;;7.26;97.45;102621.69;5022832;28;20017;-70
2021/12/14 02:45:08;;;;;;;18.08;11.02;;;;;;;7.27;97.13;102619.81;5019722;28;20361;-70
2021/12/14 02:47:34;;;;;;;15.68;9.98;;;;;;;7.26;97.12;102609.91;5022092;28;20108;-70
2021/12/14 02:49:59;;;;;;;18.13;10.00;;;;;;;7.26;96.70;102605.28;5023110;28;20481;-70
2021/12/14 02:52:34;;;;;;;15.30;9.15;;;;;;;7.26;96.70;102605.28;5022723;28;20076;-70
2021/12/14 02:55:10;;;;;;;15.15;9.27;;;;;;;7.24;96.66;102590.91;5023368;28;20039;-70
2021/12/14 02:57:39;;;;;;;18.38;10.60;;;;;;;7.21;96.63;102588.53;5023334;28;20054;-70
2021/12/14 03:00:15;;;;;;;18.30;9.60;;;;;;;7.22;97.06;102609.38;5022803;28;20025;-70
2021/12/14 03:02:41;;;;;;;17.17;9.20;;;;;;;7.16;96.71;102593.63;5035827;23;20040;-70
2021/12/14 03:05:12;;;;;;;14.68;9.40;;;;;;;7.19;96.43;102598.75;5043238;28;20394;-70
2021/12/14 03:07:46;;;;;;;13.50;8.23;;;;;;;7.19;96.68;102586.97;5042715;28;20440;-70
2021/12/14 03:10:33;;;;;;;14.73;8.63;;;;;;;7.15;96.48;102570.06;5042083;28;20021;-70
2021/12/14 03:13:02;;;;;;;14.83;8.57;;;;;;;7.16;96.13;102565.47;5031910;28;20480;-70
2021/12/14 03:15:46;;;;;;;15.13;9.52;;;;;;;7.16;96.28;102560.84;5023653;28;20480;-70
2021/12/14 03:18:14;;;;;;;14.98;9.88;;;;;;;7.12;96.30;102553.16;5036945;28;20024;-70
2021/12/14 03:20:47;;;;;;;15.88;8.13;;;;;;;7.13;95.94;102560.31;5045416;28;21037;-70
2021/12/14 03:23:20;;;;;;;13.93;7.78;;;;;;;7.11;96.06;102557.75;5046664;28;20029;-70
2021/12/14 03:25:48;;;;;;;13.43;7.80;;;;;;;7.09;96.02;102567.97;5045042;28;20025;-70
2021/12/14 03:28:16;;;;;;;14.80;7.68;;;;;;;7.10;95.88;102563.41;5045133;28;20475;-70
2021/12/14 03:30:49;;;;;;;14.52;8.68;;;;;;;7.08;95.76;102555.34;5045635;28;20021;-70
2021/12/14 03:33:23;;;;;;;14.32;8.32;;;;;;;7.12;95.84;102564.06;5028102;28;20025;-70
2021/12/14 03:35:56;;;;;;;14.15;8.23;;;;;;;7.07;95.86;102566.44;5042218;28;20030;-69
2021/12/14 03:38:23;;;;;;;16.08;7.60;;;;;;;7.06;96.03;102553.81;5028892;28;20395;-70
2021/12/14 03:41:06;;;;;;;14.55;7.55;;;;;;;7.06;96.01;102553.81;5041525;28;20033;-70
2021/12/14 03:43:32;;;;;;;15.50;8.90;;;;;;;7.03;95.70;102555.84;5042631;28;20112;-70
2021/12/14 03:45:57;;;;;;;14.55;7.90;;;;;;;7.02;95.91;102569.66;5034385;28;20017;-70
2021/12/14 03:48:25;;;;;;;13.98;8.13;;;;;;;7.02;95.82;102580.59;5044518;28;20040;-70
2021/12/14 03:50:51;;;;;;;16.08;7.68;;;;;;;6.99;96.13;102583.66;5044613;28;20025;-70
2021/12/14 03:53:18;;;;;;;17.42;8.25;;;;;;;7.00;96.10;102597.16;5045984;28;20040;-70
2021/12/14 03:55:48;;;;;;;15.75;8.20;;;;;;;7.00;96.48;102599.91;5044510;28;20029;-70
2021/12/14 03:58:17;;;;;;;15.93;8.77;;;;;;;7.01;96.01;102600.75;5046205;28;20027;-70
2021/12/14 04:00:50;;;;;;;14.40;8.48;;;;;;;7.07;96.11;102607.44;5044093;28;20037;-70
2021/12/14 04:03:18;;;;;;;14.85;8.48;;;;;;;7.01;96.41;102608.94;5046075;28;20037;-70
2021/12/14 04:05:45;;;;;;;15.38;8.13;;;;;;;7.00;96.46;102619.03;5026725;28;20034;-70
2021/12/14 04:08:13;;;;;;;16.67;8.27;;;;;;;6.99;96.36;102625.50;5027667;28;20037;-70
2021/12/14 04:10:41;;;;;;;15.18;8.32;;;;;;;7.01;96.56;102622.59;5042921;28;20067;-69
2021/12/14 04:13:07;;;;;;;;;;;;;;;7.06;96.61;102612.03;5046187;28;20060;-69
2021/12/14 04:15:33;;;;;;;15.32;8.20;;;;;;;7.00;95.79;102608.09;5027166;28;19956;-70
2021/12/14 04:17:58;;;;;;;15.85;9.27;;;;;;;6.98;96.53;102603.81;5036911;28;20078;-69
2021/12/14 04:20:31;;;;;;;16.15;8.93;;;;;;;7.03;96.02;102612.34;5035130;28;20028;-70
2021/12/14 04:22:58;;;;;;;17.33;8.60;;;;;;;6.98;96.40;102604.66;5045755;28;20121;-70
2021/12/14 04:25:31;;;;;;;17.25;9.23;;;;;;;6.98;96.68;102607.38;5045444;28;20479;-70
2021/12/14 04:27:59;;;;;;;17.35;9.63;;;;;;;6.97;96.46;102605.69;5036488;28;20135;-69
2021/12/14 04:30:26;;;;;;;16.73;10.18;;;;;;;6.95;96.67;102607.72;5045411;28;20033;-70
2021/12/14 04:33:01;;;;;;;19.45;12.63;;;;;;;6.97;96.56;102604.81;5039523;28;20569;-70
2021/12/14 04:35:26;;;;;;;20.02;11.48;;;;;;;6.93;96.83;102598.81;5043970;28;20566;-70
2021/12/14 04:37:56;;;;;;;20.55;10.98;;;;;;;6.94;96.75;102599.69;5038357;28;20040;-70
2021/12/14 04:54:05;;;;;;;20.05;11.50;;;;;;;6.91;96.74;102575.44;5029518;28;20044;-70
2021/12/14 04:56:38;;;;;;;20.10;11.98;;;;;;;6.91;97.12;102594.56;5025698;28;20021;-70
2021/12/14 04:59:16;;;;;;;20.88;11.98;;;;;;;6.90;97.54;102588.25;5043216;28;20250;-70
2021/12/14 05:01:44;;;;;;;21.45;11.45;;;;;;;6.94;96.93;102584.13;5043630;28;20072;-70
2021/12/14 05:04:15;;;;;;;20.45;12.10;;;;;;;6.89;97.34;102585.66;5045273;28;20443;-70
2021/12/14 05:06:47;;;;;;;20.30;12.07;;;;;;;6.90;97.64;102581.94;5029815;28;20376;-70
2021/12/14 05:11:45;;;;;;;21.65;12.43;;;;;;;6.90;97.57;102577.31;5035642;28;20021;-70
2021/12/14 05:14:11;;;;;;;25.05;13.00;;;;;;;6.91;97.36;102572.72;5044373;28;20036;-70
2021/12/14 05:16:38;;;;;;;21.77;12.95;;;;;;;6.91;97.48;102575.44;5044405;28;20753;-69
2021/12/14 05:19:06;;;;;;;23.05;13.15;;;;;;;6.92;97.12;102571.69;5030863;28;20116;-69
2021/12/14 05:21:45;;;;;;;27.40;14.60;;;;;;;6.95;97.72;102574.09;5044111;28;20522;-69
2021/12/14 05:24:16;;;;;;;29.10;14.98;;;;;;;6.89;97.77;102564.66;5037735;28;21363;-69
2021/12/14 05:26:43;;;;;;;27.65;15.27;;;;;;;6.91;97.48;102572.72;5026169;28;20033;-70
2021/12/14 05:29:10;;;;;;;24.10;14.27;;;;;;;6.88;97.80;102573.88;5043994;28;20360;-69
2021/12/14 05:31:43;;;;;;;24.75;14.15;;;;;;;6.88;97.40;102567.56;5039628;28;20025;-69
2021/12/14 05:34:08;;;;;;;27.00;14.38;;;;;;;6.87;97.66;102561.25;5034414;28;20110;-69
2021/12/14 05:36:34;;;;;;;26.08;14.27;;;;;;;6.87;97.53;102571.31;5042220;28;20487;-70
2021/12/14 05:39:18;;;;;;;28.27;16.77;;;;;;;6.89;97.22;102567.38;5044509;28;20036;-70
2021/12/14 05:44:28;;;;;;;28.38;15.90;;;;;;;6.87;97.42;102569.44;5041434;28;20107;-69
2021/12/14 05:47:00;;;;;;;29.00;16.08;;;;;;;6.87;97.85;102574.06;5034811;28;20036;-70
2021/12/14 05:49:27;;;;;;;28.02;15.98;;;;;;;6.92;97.13;102579.88;5043047;28;20033;-70
2021/12/14 05:51:55;;;;;;;29.70;16.55;;;;;;;6.89;97.42;102591.13;5030756;28;20029;-69
2021/12/14 05:54:27;;;;;;;27.95;15.25;;;;;;;6.88;97.62;102589.41;5027293;28;20530;-69
2021/12/14 05:56:55;;;;;;;28.15;15.38;;;;;;;6.89;97.61;102591.13;5029002;28;20029;-70
2021/12/14 05:59:28;;;;;;;27.70;15.05;;;;;;;6.88;97.69;102583.94;5023524;28;20033;-70
2021/12/14 06:01:54;;;;;;;26.63;15.15;;;;;;;6.86;97.68;102592.31;5026123;28;20049;-70
2021/12/14 06:04:20;;;;;;;29.02;16.00;;;;;;;6.89;97.51;102591.13;5037490;28;20396;-69
2021/12/14 06:06:52;;;;;;;25.63;14.68;;;;;;;6.90;97.42;102588.25;5041066;28;20124;-69
2021/12/14 06:09:28;;;;;;;28.10;15.85;;;;;;;6.88;97.39;102594.88;5030778;28;20484;-69
2021/12/14 06:12:14;;;;;;;28.75;16.17;;;;;;;6.88;97.90;102600.34;5043548;28;20158;-69
2021/12/14 06:14:49;;;;;;;30.30;16.23;;;;;;;6.88;97.57;102597.59;5035950;28;20033;-69
2021/12/14 06:17:16;;;;;;;29.55;15.35;;;;;;;6.86;97.73;102603.25;5028292;28;20021;-69
2021/12/14 06:19:48;;;;;;;29.58;16.48;;;;;;;6.88;97.84;102603.06;5042930;28;20025;-69
2021/12/14 06:22:17;;;;;;;30.40;16.27;;;;;;;6.90;97.54;102606.50;5035233;28;20140;-70
2021/12/14 06:24:46;;;;;;;28.35;15.20;;;;;;;6.90;97.36;102620.16;5032749;28;20395;-69
2021/12/14 06:27:15;;;;;;;28.02;15.55;;;;;;;6.88;97.24;102616.72;5032723;28;20037;-70
2021/12/14 06:29:42;;;;;;;32.05;16.92;;;;;;;6.88;97.23;102611.25;5043879;28;20025;-69
2021/12/14 06:32:27;;;;;;;30.35;16.25;;;;;;;6.90;97.24;102618.28;5033215;28;20454;-70
2021/12/14 06:35:01;;;;;;;30.35;16.63;;;;;;;6.88;97.38;102609.38;5036062;28;20044;-69
2021/12/14 06:40:30;;;;;;;33.58;19.63;;;;;;;6.87;97.31;102609.56;5043067;28;20461;-70
2021/12/14 06:43:00;;;;;;;33.92;18.73;;;;;;;6.87;97.59;102613.13;5042628;28;20431;-68
2021/12/14 06:45:28;;;;;;;32.13;17.42;;;;;;;6.84;97.47;102609.88;5039712;28;20110;-69
2021/12/14 06:48:03;;;;;;;34.03;18.08;;;;;;;6.85;97.74;102611.59;5043661;28;20021;-69
2021/12/14 06:50:35;;;;;;;33.88;19.33;;;;;;;6.83;97.56;102622.69;5041186;28;20360;-70
2021/12/14 06:53:08;;;;;;;32.42;18.60;;;;;;;6.84;97.88;102620.78;5043984;28;20021;-70
2021/12/14 06:55:35;;;;;;;32.35;18.35;;;;;;;6.85;97.55;102630.72;5032929;28;20033;-70
2021/12/14 06:58:06;;;;;;;32.00;17.65;;;;;;;6.89;97.99;102637.56;5047864;28;20056;-70
2021/12/14 07:00:32;;;;;;;37.95;19.40;;;;;;;6.82;97.66;102634.63;5032274;28;20033;-70
2021/12/14 07:02:57;;;;;;;38.30;19.23;;;;;;;6.82;97.75;102636.50;5028811;28;20538;-70
2021/12/14 07:05:25;;;;;;;36.25;19.15;;;;;;;6.85;97.96;102637.03;5045582;28;20021;-70
2021/12/14 07:07:51;;;;;;;34.67;18.67;;;;;;;6.90;97.34;102633.81;5046665;28;20037;-70
2021/12/14 07:10:16;;;;;;;39.00;19.30;;;;;;;6.84;97.90;102637.19;5044443;28;20048;-69
2021/12/14 07:12:43;;;;;;;38.22;20.25;;;;;;;6.83;97.80;102635.47;5040842;28;20029;-70
2021/12/14 07:15:15;;;;;;;36.97;19.80;;;;;;;6.86;97.68;102649.66;5034206;28;20528;-71
2021/12/14 07:17:48;;;;;;;38.63;20.48;;;;;;;6.84;97.72;102651.69;5047322;28;20075;-70
2021/12/14 07:20:13;;;;;;;43.13;21.67;;;;;;;6.87;97.93;102653.25;5030162;28;20041;-70
2021/12/14 07:23:26;;;;;;;41.47;21.77;;;;;;;6.90;97.96;102655.69;5038341;28;20033;-70
2021/12/14 07:25:56;;;;;;;40.38;20.75;;;;;;;6.88;97.82;102664.00;5030921;28;20052;-70
2021/12/14 07:28:22;;;;;;;40.10;21.08;;;;;;;6.86;97.76;102662.47;5046251;28;20132;-70
2021/12/14 07:30:59;;;;;;;40.25;21.20;;;;;;;6.84;98.19;102670.81;5044798;28;20108;-70
2021/12/14 07:33:28;;;;;;;40.80;21.08;;;;;;;6.86;98.28;102667.94;5041542;28;20053;-70
2021/12/14 07:35:58;;;;;;;41.15;21.83;;;;;;;6.86;97.83;102673.41;5026884;28;20045;-70
2021/12/14 07:38:43;;;;;;;37.20;19.98;;;;;;;6.89;97.88;102678.53;5026628;28;20584;-70
2021/12/14 07:41:20;;;;;;;41.00;21.40;;;;;;;6.90;97.75;102674.78;5032724;28;20065;-70
2021/12/14 07:44:13;;;;;;;38.57;19.97;;;;;;;6.92;97.56;102683.66;5047072;28;20021;-70
2021/12/14 07:46:43;;;;;;;41.58;20.52;;;;;;;6.87;97.65;102686.03;5033827;28;20037;-71
2021/12/14 07:49:26;;;;;;;43.95;21.90;;;;;;;6.91;97.88;102685.56;5026705;28;20372;-70
2021/12/14 07:51:58;;;;;;;42.83;21.88;;;;;;;6.89;97.55;102683.97;5037797;28;20496;-71
2021/12/14 07:54:27;;;;;;;44.20;21.95;;;;;;;6.88;98.06;102687.75;5025353;28;20032;-71
2021/12/14 07:57:00;;;;;;;43.42;21.48;;;;;;;6.89;98.05;102698.50;5040838;28;20720;-71
2021/12/14 07:59:27;;;;;;;43.95;20.83;;;;;;;6.91;97.79;102696.47;5045880;28;20052;-71
2021/12/14 08:02:28;;;;;;;41.05;19.77;;;;;;;6.95;98.13;102694.28;5040606;28;20045;-71
2021/12/14 08:04:57;;;;;;;47.88;22.70;;;;;;;6.92;97.74;102697.31;5010391;28;20502;-72
2021/12/14 08:07:24;;;;;;;44.42;24.00;;;;;;;6.94;97.95;102706.22;5025715;28;20120;-71
2021/12/14 08:09:53;;;;;;;47.20;23.88;;;;;;;6.94;97.71;102708.94;5044416;28;20517;-71
2021/12/14 08:12:35;;;;;;;;;;;;;;;7.03;97.93;102705.25;5028928;28;20032;-71
2021/12/14 08:15:06;;;;;;;50.67;23.33;;;;;;;6.99;97.46;102707.47;5026513;28;19966;-71
2021/12/14 08:17:32;;;;;;;45.85;24.38;;;;;;;6.99;97.49;102706.56;5035129;28;20136;-71
2021/12/14 08:19:58;;;;;;;47.58;22.75;;;;;;;7.01;97.16;102704.56;5037826;28;20040;-71
2021/12/14 08:22:33;;;;;;;44.55;23.00;;;;;;;7.03;97.05;102707.97;5040360;28;20108;-71
2021/12/14 08:24:59;;;;;;;48.65;22.90;;;;;;;7.03;97.42;102702.50;5038643;28;20439;-72
2021/12/14 08:27:27;;;;;;;46.03;23.80;;;;;;;7.06;96.82;102702.19;5042061;28;20087;-71
2021/12/14 08:29:57;;;;;;;44.47;22.45;;;;;;;7.11;96.80;102708.03;5038248;28;20033;-72
2021/12/14 08:32:34;;;;;;;46.47;24.30;;;;;;;7.07;97.09;102709.38;5039289;28;20071;-71
2021/12/14 08:35:02;;;;;;;45.20;23.48;;;;;;;7.13;96.64;102705.97;5040195;28;20047;-72
2021/12/14 08:37:33;;;;;;;48.33;24.13;;;;;;;7.10;96.95;102708.22;5037196;28;20078;-71
2021/12/14 08:40:05;;;;;;;50.78;24.95;;;;;;;7.10;97.00;102728.19;5036494;28;20041;-71
2021/12/14 08:42:39;;;;;;;46.60;25.02;;;;;;;7.11;97.19;102715.38;5041464;28;20040;-71
2021/12/14 08:45:25;;;;;;;53.00;24.30;;;;;;;7.13;97.31;102705.97;5033813;28;20127;-70
2021/12/14 08:47:56;;;;;;;52.92;24.17;;;;;;;7.13;97.19;102711.44;5031001;28;20033;-71
2021/12/14 08:50:22;;;;;;;47.42;24.17;;;;;;;7.19;96.68;102719.00;5035402;28;20094;-70
2021/12/14 08:52:49;;;;;;;47.45;24.75;;;;;;;7.21;96.74;102721.59;5036800;28;20056;-71
2021/12/14 08:55:16;;;;;;;46.42;25.00;;;;;;;7.20;97.03;102718.00;5033884;28;20791;-71
2021/12/14 08:57:42;;;;;;;48.25;25.67;;;;;;;7.23;96.67;102714.06;5042376;28;20103;-71
2021/12/14 09:00:31;;;;;;;51.55;25.58;;;;;;;7.26;97.07;102714.59;5040501;28;20031;-71
2021/12/14 09:03:00;;;;;;;48.92;24.48;;;;;;;7.29;96.31;102716.13;5036045;28;20084;-71
2021/12/14 09:05:33;;;;;;;50.75;25.73;;;;;;;7.33;96.72;102716.69;5040574;28;20083;-71
2021/12/14 09:07:59;;;;;;;51.17;25.23;;;;;;;7.38;96.34;102717.91;5035499;28;20127;-71
2021/12/14 09:10:28;;;;;;;49.28;26.02;;;;;;;7.45;95.83;102726.28;5033023;28;20141;-71
2021/12/14 09:12:59;;;;;;;48.90;24.83;;;;;;;7.49;95.79;102723.06;5032129;28;20344;-71
2021/12/14 09:15:37;;;;;;;45.75;24.58;;;;;;;7.63;95.15;102727.06;5030778;28;20028;-70
2021/12/14 09:18:04;;;;;;;49.75;25.10;;;;;;;7.75;94.69;102724.88;5047364;28;20041;-69
2021/12/14 09:20:43;;;;;;;48.92;25.35;;;;;;;7.85;94.53;102730.19;5035747;28;20014;-71
2021/12/14 09:23:13;;;;;;;48.15;25.42;;;;;;;7.91;94.35;102727.69;5040995;28;20029;-71
2021/12/14 09:25:39;;;;;;;46.35;24.58;;;;;;;7.98;93.82;102733.31;5041046;28;20945;-71
2021/12/14 09:28:05;;;;;;;45.97;23.98;;;;;;;8.05;93.93;102731.63;5039381;28;20107;-71
2021/12/14 09:30:35;;;;;;;46.38;25.10;;;;;;;8.08;92.83;102731.28;5037816;28;20025;-71
2021/12/14 09:33:01;;;;;;;47.47;25.90;;;;;;;8.16;92.43;102733.16;5042378;28;20036;-70
2021/12/14 09:35:34;;;;;;;43.67;24.17;;;;;;;8.21;91.86;102730.78;5030976;28;20037;-70
2021/12/14 09:38:00;;;;;;;48.30;26.17;;;;;;;8.28;91.67;102732.69;5024795;28;20124;-70
2021/12/14 09:40:31;;;;;;;50.45;26.42;;;;;;;8.37;91.57;102736.34;5023479;28;20017;-67
2021/12/14 09:42:56;;;;;;;48.88;25.83;;;;;;;8.43;91.60;102732.91;5024569;28;20029;-68
2021/12/14 09:45:27;;;;;;;43.05;23.30;;;;;;;8.45;90.64;102724.53;5023973;28;20445;-67
2021/12/14 09:47:52;;;;;;;43.78;25.75;;;;;;;8.42;91.03;102722.13;5024418;28;20026;-67
2021/12/14 09:50:23;;;;;;;49.28;26.02;;;;;;;8.50;90.59;102720.25;5023040;28;20440;-67
2021/12/14 09:52:49;;;;;;;46.78;25.20;;;;;;;8.60;90.21;102717.31;5023616;28;20481;-67
2021/12/14 09:55:24;;;;;;;46.50;24.73;;;;;;;8.66;89.93;102713.91;5023167;28;20438;-68
2021/12/14 09:57:54;;;;;;;46.30;26.38;;;;;;;8.59;90.06;102715.63;5038634;28;20100;-68
2021/12/14 10:00:30;;;;;;;48.92;25.75;;;;;;;8.61;90.38;102718.19;5043508;28;20017;-67
2021/12/14 10:02:58;;;;;;;49.47;27.52;;;;;;;8.61;90.01;102719.03;5042954;28;20185;-67
2021/12/14 10:05:32;;;;;;;50.35;26.63;;;;;;;8.69;90.11;102716.31;5042228;28;20040;-67
2021/12/14 10:08:00;;;;;;;48.28;26.15;;;;;;;8.71;89.64;102716.97;5044195;28;20028;-67
2021/12/14 10:10:26;;;;;;;49.83;26.77;;;;;;;8.69;90.20;102719.03;5042826;28;20021;-70
2021/12/14 10:12:55;;;;;;;47.72;26.77;;;;;;;8.76;89.51;102731.00;5043662;28;20024;-71
2021/12/14 10:15:46;;;;;;;48.42;26.42;;;;;;;8.87;89.98;102720.72;5043587;28;20446;-71
2021/12/14 10:18:21;;;;;;;50.40;26.65;;;;;;;8.86;89.34;102721.75;5043566;28;20392;-70
2021/12/14 10:21:16;;;;;;;47.75;24.77;;;;;;;8.97;89.38;102721.38;5042612;28;20017;-71
2021/12/14 10:23:43;;;;;;;48.50;25.92;;;;;;;8.86;89.35;102725.34;5028200;28;20051;-70
2021/12/14 10:26:10;;;;;;;47.55;25.98;;;;;;;8.81;89.14;102723.13;5042498;28;20183;-70
2021/12/14 10:28:38;;;;;;;47.88;25.88;;;;;;;8.77;89.51;102724.53;5043336;28;20033;-70
2021/12/14 10:31:11;;;;;;;43.83;24.10;;;;;;;8.77;90.12;102727.25;5043087;28;20467;-70
2021/12/14 10:33:39;;;;;;;49.63;25.88;;;;;;;8.82;90.08;102726.75;5043086;28;20025;-70
2021/12/14 10:36:23;;;;;;;46.13;25.52;;;;;;;8.83;90.22;102737.53;5042388;28;20025;-70
2021/12/14 10:39:06;;;;;;;49.58;26.70;;;;;;;8.80;90.53;102737.84;5043257;28;20040;-70
2021/12/14 10:44:16;;;;;;;48.35;25.13;;;;;;;8.71;90.38;102729.81;5043542;28;20075;-70
2021/12/14 10:46:49;;;;;;;48.75;27.48;;;;;;;8.70;90.69;102730.84;5043564;28;20044;-70
2021/12/14 10:49:17;;;;;;;52.88;27.50;;;;;;;8.70;91.21;102718.00;5041932;28;20029;-70
2021/12/14 10:51:50;;;;;;;47.60;27.02;;;;;;;8.72;90.43;102726.06;5043185;28;20037;-70
2021/12/14 10:54:16;;;;;;;56.75;28.90;;;;;;;8.70;90.71;102731.69;5042572;28;20029;-71
2021/12/14 10:56:58;;;;;;;49.38;27.27;;;;;;;8.65;91.64;102714.94;5042480;28;20276;-71
2021/12/14 10:59:31;;;;;;;50.67;27.23;;;;;;;8.76;91.20;102724.69;5042913;28;20037;-71
2021/12/14 11:01:57;;;;;;;48.25;26.67;;;;;;;8.78;90.54;102722.63;5023391;28;20041;-70
2021/12/14 11:04:33;;;;;;;46.58;25.65;;;;;;;8.75;90.94;102721.09;5022247;28;20029;-70
2021/12/14 11:07:01;;;;;;;47.90;26.83;;;;;;;8.76;90.97;102714.56;5023071;28;20014;-71
2021/12/14 11:10:04;;;;;;;49.50;27.48;;;;;;;8.79;91.09;102718.88;5023555;28;20040;-70
2021/12/14 11:12:31;;;;;;;49.58;27.67;;;;;;;8.86;91.21;102719.88;5021736;28;20049;-71
2021/12/14 11:15:04;;;;;;;51.70;28.40;;;;;;;8.92;90.87;102712.84;5031219;28;20025;-70
2021/12/14 11:20:22;;;;;;;50.13;26.15;;;;;;;8.94;90.52;102706.16;5030526;28;20056;-70
2021/12/14 11:22:56;;;;;;;50.47;27.30;;;;;;;8.96;90.62;102700.50;5037935;28;20056;-71
2021/12/14 11:25:24;;;;;;;48.08;26.52;;;;;;;9.04;90.72;102695.00;5038094;28;20029;-71
2021/12/14 11:27:54;;;;;;;;;;;;;;;9.21;90.78;102695.81;5037095;28;20599;-71
2021/12/14 11:30:27;;;;;;;50.88;25.50;;;;;;;9.24;90.01;102693.56;5036702;28;20058;-71
2021/12/14 11:33:27;;;;;;;49.20;26.77;;;;;;;9.29;90.02;102687.56;5033215;28;20736;-71
2021/12/14 11:36:08;;;;;;;53.40;27.85;;;;;;;9.22;89.15;102686.53;5031535;28;20045;-71
2021/12/14 11:38:48;;;;;;;51.90;28.08;;;;;;;9.21;89.89;102690.31;5035788;28;20395;-70
2021/12/14 11:41:25;;;;;;;48.65;26.73;;;;;;;9.13;90.01;102688.47;5043403;28;20021;-71
2021/12/14 11:43:58;;;;;;;50.17;26.83;;;;;;;9.14;90.38;102684.69;5033435;28;20072;-71
2021/12/14 11:46:25;;;;;;;57.63;29.65;;;;;;;9.18;90.17;102687.94;5035923;28;20085;-72
2021/12/14 11:48:57;;;;;;;53.92;29.08;;;;;;;9.16;90.56;102688.09;5042727;28;20034;-71
2021/12/14 11:51:24;;;;;;;54.63;30.80;;;;;;;9.19;89.55;102693.25;5043993;28;20032;-71
2021/12/14 11:53:52;;;;;;;56.78;32.13;;;;;;;9.17;90.27;102687.06;5042410;28;20041;-71
2021/12/14 11:56:20;;;;;;;55.95;30.70;;;;;;;9.17;90.20;102683.47;5033517;28;20049;-71
2021/12/14 11:58:50;;;;;;;57.15;32.10;;;;;;;9.12;90.36;102689.47;5046940;28;20033;-71
2021/12/14 12:01:22;;;;;;;60.67;32.33;;;;;;;9.07;91.18;102695.53;5045751;28;20049;-71
2021/12/14 12:04:01;;;;;;;61.85;32.15;;;;;;;9.09;90.36;102698.94;5032530;28;20033;-71
2021/12/14 12:09:29;;;;;;;64.38;32.95;;;;;;;9.07;91.28;102694.63;5035910;28;20409;-71
2021/12/14 12:12:02;;;;;;;58.75;30.73;;;;;;;9.06;90.81;102692.94;5044893;28;20430;-71
2021/12/14 12:14:54;;;;;;;58.70;31.10;;;;;;;9.06;90.80;102707.50;5026821;28;20075;-71
2021/12/14 12:17:35;;;;;;;62.97;31.92;;;;;;;8.98;91.07;102703.94;5031762;28;20033;-70